sensor_id;sensor_type;location;lat;lon;timestamp;temperature;humidity
31133;DHT22;17779;50.942;4.026;2023-05-23T00:00:07;13.50;99.90
31133;DHT22;17779;50.942;4.026;2023-05-23T00:02:33;13.50;99.90
31133;DHT22;17779;50.942;4.026;2023-05-23T00:04:59;13.50;99.90
31133;DHT22;17779;50.942;4.026;2023-05-23T00:07:28;13.50;99.90
31133;DHT22;17779;50.942;4.026;2023-05-23T00:09:53;13.50;99.90
31133;DHT22;17779;50.942;4.026;2023-05-23T00:12:20;13.50;99.90
31133;DHT22;17779;50.942;4.026;2023-05-23T00:14:46;13.60;99.90
31133;DHT22;17779;50.942;4.026;2023-05-23T00:17:13;13.60;99.90
31133;DHT22;17779;50.942;4.026;2023-05-23T00:19:38;13.60;99.90
31133;DHT22;17779;50.942;4.026;2023-05-23T00:22:04;13.60;99.90
31133;DHT22;17779;50.942;4.026;2023-05-23T00:24:30;13.60;99.90
31133;DHT22;17779;50.942;4.026;2023-05-23T00:26:56;13.50;99.90
31133;DHT22;17779;50.942;4.026;2023-05-23T00:29:23;13.50;99.90
31133;DHT22;17779;50.942;4.026;2023-05-23T00:31:49;13.50;99.90
31133;DHT22;17779;50.942;4.026;2023-05-23T00:34:15;13.50;99.90
31133;DHT22;17779;50.942;4.026;2023-05-23T00:36:44;13.50;99.90
31133;DHT22;17779;50.942;4.026;2023-05-23T00:39:12;13.60;99.90
31133;DHT22;17779;50.942;4.026;2023-05-23T00:41:51;13.60;99.90
31133;DHT22;17779;50.942;4.026;2023-05-23T00:44:16;13.60;99.90
31133;DHT22;17779;50.942;4.026;2023-05-23T00:46:48;13.60;99.90
31133;DHT22;17779;50.942;4.026;2023-05-23T00:49:15;13.60;99.90
31133;DHT22;17779;50.942;4.026;2023-05-23T00:51:45;13.70;99.90
31133;DHT22;17779;50.942;4.026;2023-05-23T00:54:11;13.70;99.90
31133;DHT22;17779;50.942;4.026;2023-05-23T00:56:38;13.70;99.90
31133;DHT22;17779;50.942;4.026;2023-05-23T00:59:05;13.80;99.90
31133;DHT22;17779;50.942;4.026;2023-05-23T01:01:31;13.70;99.90
31133;DHT22;17779;50.942;4.026;2023-05-23T01:03:58;13.80;99.90
31133;DHT22;17779;50.942;4.026;2023-05-23T01:06:23;13.80;99.90
31133;DHT22;17779;50.942;4.026;2023-05-23T01:08:49;13.80;99.90
31133;DHT22;17779;50.942;4.026;2023-05-23T01:11:22;13.80;99.90
31133;DHT22;17779;50.942;4.026;2023-05-23T01:14:06;13.80;99.90
31133;DHT22;17779;50.942;4.026;2023-05-23T01:16:54;13.80;99.90
31133;DHT22;17779;50.942;4.026;2023-05-23T01:19:41;13.80;99.90
31133;DHT22;17779;50.942;4.026;2023-05-23T01:24:59;13.80;99.90
31133;DHT22;17779;50.942;4.026;2023-05-23T01:27:41;13.80;99.90
31133;DHT22;17779;50.942;4.026;2023-05-23T01:30:12;13.80;99.90
31133;DHT22;17779;50.942;4.026;2023-05-23T01:32:39;13.80;99.90
31133;DHT22;17779;50.942;4.026;2023-05-23T01:35:05;13.80;99.90
31133;DHT22;17779;50.942;4.026;2023-05-23T01:37:31;13.80;99.90
31133;DHT22;17779;50.942;4.026;2023-05-23T01:39:57;13.80;99.90
31133;DHT22;17779;50.942;4.026;2023-05-23T01:42:22;13.90;99.90
31133;DHT22;17779;50.942;4.026;2023-05-23T01:44:48;13.90;99.90
31133;DHT22;17779;50.942;4.026;2023-05-23T01:47:14;13.80;99.90
31133;DHT22;17779;50.942;4.026;2023-05-23T01:49:40;13.80;99.90
31133;DHT22;17779;50.942;4.026;2023-05-23T01:52:07;13.90;99.90
31133;DHT22;17779;50.942;4.026;2023-05-23T01:54:36;13.90;99.90
31133;DHT22;17779;50.942;4.026;2023-05-23T01:57:04;14.00;99.90
31133;DHT22;17779;50.942;4.026;2023-05-23T01:59:30;14.00;99.90
31133;DHT22;17779;50.942;4.026;2023-05-23T02:01:56;14.00;99.90
31133;DHT22;17779;50.942;4.026;2023-05-23T02:04:22;14.10;99.90
31133;DHT22;17779;50.942;4.026;2023-05-23T02:06:48;14.10;99.90
31133;DHT22;17779;50.942;4.026;2023-05-23T02:09:14;14.10;99.90
31133;DHT22;17779;50.942;4.026;2023-05-23T02:11:40;14.10;99.90
31133;DHT22;17779;50.942;4.026;2023-05-23T02:14:06;14.20;99.90
31133;DHT22;17779;50.942;4.026;2023-05-23T02:16:32;14.10;99.90
31133;DHT22;17779;50.942;4.026;2023-05-23T02:19:00;14.00;99.90
31133;DHT22;17779;50.942;4.026;2023-05-23T02:21:26;14.00;99.90
31133;DHT22;17779;50.942;4.026;2023-05-23T02:23:52;14.00;99.90
31133;DHT22;17779;50.942;4.026;2023-05-23T02:26:18;13.90;99.90
31133;DHT22;17779;50.942;4.026;2023-05-23T02:28:44;14.10;99.90
31133;DHT22;17779;50.942;4.026;2023-05-23T02:31:10;14.00;99.90
31133;DHT22;17779;50.942;4.026;2023-05-23T02:33:35;14.00;99.90
31133;DHT22;17779;50.942;4.026;2023-05-23T02:36:01;14.00;99.90
31133;DHT22;17779;50.942;4.026;2023-05-23T02:38:27;14.00;99.90
31133;DHT22;17779;50.942;4.026;2023-05-23T02:40:55;14.10;99.90
31133;DHT22;17779;50.942;4.026;2023-05-23T02:43:22;14.00;99.90
31133;DHT22;17779;50.942;4.026;2023-05-23T02:45:48;14.10;99.90
31133;DHT22;17779;50.942;4.026;2023-05-23T02:48:14;14.00;99.90
31133;DHT22;17779;50.942;4.026;2023-05-23T02:50:40;13.80;99.90
31133;DHT22;17779;50.942;4.026;2023-05-23T02:53:06;13.70;99.90
31133;DHT22;17779;50.942;4.026;2023-05-23T02:55:31;13.60;99.90
31133;DHT22;17779;50.942;4.026;2023-05-23T02:57:57;13.60;99.90
31133;DHT22;17779;50.942;4.026;2023-05-23T03:00:23;13.60;99.90
31133;DHT22;17779;50.942;4.026;2023-05-23T03:02:49;13.70;99.90
31133;DHT22;17779;50.942;4.026;2023-05-23T03:05:16;13.70;99.90
31133;DHT22;17779;50.942;4.026;2023-05-23T03:07:41;13.70;99.90
31133;DHT22;17779;50.942;4.026;2023-05-23T03:10:08;13.70;99.90
31133;DHT22;17779;50.942;4.026;2023-05-23T03:12:34;13.60;99.90
31133;DHT22;17779;50.942;4.026;2023-05-23T03:15:00;13.60;99.90
31133;DHT22;17779;50.942;4.026;2023-05-23T03:17:26;13.60;99.90
31133;DHT22;17779;50.942;4.026;2023-05-23T03:19:51;13.60;99.90
31133;DHT22;17779;50.942;4.026;2023-05-23T03:22:17;13.70;99.90
31133;DHT22;17779;50.942;4.026;2023-05-23T03:24:43;13.60;99.90
31133;DHT22;17779;50.942;4.026;2023-05-23T03:27:09;13.60;99.90
31133;DHT22;17779;50.942;4.026;2023-05-23T03:29:34;13.60;99.90
31133;DHT22;17779;50.942;4.026;2023-05-23T03:32:00;13.70;99.90
31133;DHT22;17779;50.942;4.026;2023-05-23T03:34:26;13.70;99.90
31133;DHT22;17779;50.942;4.026;2023-05-23T03:36:52;13.70;99.90
31133;DHT22;17779;50.942;4.026;2023-05-23T03:39:18;13.70;99.90
31133;DHT22;17779;50.942;4.026;2023-05-23T03:41:44;13.70;99.90
31133;DHT22;17779;50.942;4.026;2023-05-23T03:44:10;13.70;99.90
31133;DHT22;17779;50.942;4.026;2023-05-23T03:46:35;13.80;99.90
31133;DHT22;17779;50.942;4.026;2023-05-23T03:49:01;13.80;99.90
31133;DHT22;17779;50.942;4.026;2023-05-23T03:51:27;13.90;99.90
31133;DHT22;17779;50.942;4.026;2023-05-23T03:53:53;14.00;99.90
31133;DHT22;17779;50.942;4.026;2023-05-23T03:56:19;14.10;99.90
31133;DHT22;17779;50.942;4.026;2023-05-23T03:58:45;14.20;99.90
31133;DHT22;17779;50.942;4.026;2023-05-23T04:01:11;14.20;99.90
31133;DHT22;17779;50.942;4.026;2023-05-23T04:03:37;14.20;99.90
31133;DHT22;17779;50.942;4.026;2023-05-23T04:06:03;14.20;99.90
31133;DHT22;17779;50.942;4.026;2023-05-23T04:08:29;14.10;99.90
31133;DHT22;17779;50.942;4.026;2023-05-23T04:10:59;14.10;99.90
31133;DHT22;17779;50.942;4.026;2023-05-23T04:13:26;14.20;99.90
31133;DHT22;17779;50.942;4.026;2023-05-23T04:15:52;14.20;99.90
31133;DHT22;17779;50.942;4.026;2023-05-23T04:18:20;14.10;99.90
31133;DHT22;17779;50.942;4.026;2023-05-23T04:20:46;14.00;99.90
31133;DHT22;17779;50.942;4.026;2023-05-23T04:23:12;14.20;99.90
31133;DHT22;17779;50.942;4.026;2023-05-23T04:25:38;14.20;99.90
31133;DHT22;17779;50.942;4.026;2023-05-23T04:28:04;14.30;99.90
31133;DHT22;17779;50.942;4.026;2023-05-23T04:30:31;14.30;99.90
31133;DHT22;17779;50.942;4.026;2023-05-23T04:32:58;14.20;99.90
31133;DHT22;17779;50.942;4.026;2023-05-23T04:35:24;14.00;99.90
31133;DHT22;17779;50.942;4.026;2023-05-23T04:37:51;13.90;99.90
31133;DHT22;17779;50.942;4.026;2023-05-23T04:40:22;13.90;99.90
31133;DHT22;17779;50.942;4.026;2023-05-23T04:42:49;13.90;99.90
31133;DHT22;17779;50.942;4.026;2023-05-23T04:45:16;13.80;99.90
31133;DHT22;17779;50.942;4.026;2023-05-23T04:47:44;13.80;99.90
31133;DHT22;17779;50.942;4.026;2023-05-23T04:50:10;13.80;99.90
31133;DHT22;17779;50.942;4.026;2023-05-23T04:52:36;13.80;99.90
31133;DHT22;17779;50.942;4.026;2023-05-23T04:55:01;13.80;99.90
31133;DHT22;17779;50.942;4.026;2023-05-23T04:57:27;13.70;99.90
31133;DHT22;17779;50.942;4.026;2023-05-23T04:59:53;13.80;99.90
31133;DHT22;17779;50.942;4.026;2023-05-23T05:02:19;13.80;99.90
31133;DHT22;17779;50.942;4.026;2023-05-23T05:04:45;13.80;99.90
31133;DHT22;17779;50.942;4.026;2023-05-23T05:07:11;13.80;99.90
31133;DHT22;17779;50.942;4.026;2023-05-23T05:09:37;13.70;99.90
31133;DHT22;17779;50.942;4.026;2023-05-23T05:12:03;13.70;99.90
31133;DHT22;17779;50.942;4.026;2023-05-23T05:14:29;13.70;99.90
31133;DHT22;17779;50.942;4.026;2023-05-23T05:16:55;13.70;99.90
31133;DHT22;17779;50.942;4.026;2023-05-23T05:19:22;13.80;99.90
31133;DHT22;17779;50.942;4.026;2023-05-23T05:21:48;13.70;99.90
31133;DHT22;17779;50.942;4.026;2023-05-23T05:24:14;13.70;99.90
31133;DHT22;17779;50.942;4.026;2023-05-23T05:26:41;13.60;99.90
31133;DHT22;17779;50.942;4.026;2023-05-23T05:29:07;13.60;99.90
31133;DHT22;17779;50.942;4.026;2023-05-23T05:31:33;13.70;99.90
31133;DHT22;17779;50.942;4.026;2023-05-23T05:34:00;13.80;99.90
31133;DHT22;17779;50.942;4.026;2023-05-23T05:36:26;13.80;99.90
31133;DHT22;17779;50.942;4.026;2023-05-23T05:38:52;13.80;99.90
31133;DHT22;17779;50.942;4.026;2023-05-23T05:41:18;13.70;99.90
31133;DHT22;17779;50.942;4.026;2023-05-23T05:43:44;13.60;99.90
31133;DHT22;17779;50.942;4.026;2023-05-23T05:46:10;13.60;99.90
31133;DHT22;17779;50.942;4.026;2023-05-23T05:48:36;13.50;99.90
31133;DHT22;17779;50.942;4.026;2023-05-23T05:51:02;13.50;99.90
31133;DHT22;17779;50.942;4.026;2023-05-23T05:53:28;13.50;99.90
31133;DHT22;17779;50.942;4.026;2023-05-23T05:55:54;13.40;99.90
31133;DHT22;17779;50.942;4.026;2023-05-23T05:58:20;13.30;99.90
31133;DHT22;17779;50.942;4.026;2023-05-23T06:00:46;13.30;99.90
31133;DHT22;17779;50.942;4.026;2023-05-23T06:03:13;13.40;99.90
31133;DHT22;17779;50.942;4.026;2023-05-23T06:05:40;13.50;99.90
31133;DHT22;17779;50.942;4.026;2023-05-23T06:08:06;13.60;99.90
31133;DHT22;17779;50.942;4.026;2023-05-23T06:10:32;13.50;99.90
31133;DHT22;17779;50.942;4.026;2023-05-23T06:12:59;13.50;99.90
31133;DHT22;17779;50.942;4.026;2023-05-23T06:15:25;13.60;99.90
31133;DHT22;17779;50.942;4.026;2023-05-23T06:17:51;13.60;99.90
31133;DHT22;17779;50.942;4.026;2023-05-23T06:20:17;13.80;99.90
31133;DHT22;17779;50.942;4.026;2023-05-23T06:22:42;13.80;99.90
31133;DHT22;17779;50.942;4.026;2023-05-23T06:25:08;13.80;99.90
31133;DHT22;17779;50.942;4.026;2023-05-23T06:27:34;13.90;99.90
31133;DHT22;17779;50.942;4.026;2023-05-23T06:30:05;13.90;99.90
31133;DHT22;17779;50.942;4.026;2023-05-23T06:32:31;14.00;99.90
31133;DHT22;17779;50.942;4.026;2023-05-23T06:34:56;14.10;99.90
31133;DHT22;17779;50.942;4.026;2023-05-23T06:37:22;14.20;99.90
31133;DHT22;17779;50.942;4.026;2023-05-23T06:39:48;14.30;99.90
31133;DHT22;17779;50.942;4.026;2023-05-23T06:42:14;14.20;99.90
31133;DHT22;17779;50.942;4.026;2023-05-23T06:44:40;14.10;99.90
31133;DHT22;17779;50.942;4.026;2023-05-23T06:47:06;14.10;99.90
31133;DHT22;17779;50.942;4.026;2023-05-23T06:49:32;14.10;99.90
31133;DHT22;17779;50.942;4.026;2023-05-23T06:51:58;14.20;99.90
31133;DHT22;17779;50.942;4.026;2023-05-23T06:54:23;14.30;99.90
31133;DHT22;17779;50.942;4.026;2023-05-23T06:56:49;14.20;99.90
31133;DHT22;17779;50.942;4.026;2023-05-23T06:59:15;14.10;99.90
31133;DHT22;17779;50.942;4.026;2023-05-23T07:01:41;14.10;99.90
31133;DHT22;17779;50.942;4.026;2023-05-23T07:04:08;14.20;99.90
31133;DHT22;17779;50.942;4.026;2023-05-23T07:06:36;14.20;99.90
31133;DHT22;17779;50.942;4.026;2023-05-23T07:09:04;14.30;99.90
31133;DHT22;17779;50.942;4.026;2023-05-23T07:11:30;14.50;99.90
31133;DHT22;17779;50.942;4.026;2023-05-23T07:13:55;14.60;99.90
31133;DHT22;17779;50.942;4.026;2023-05-23T07:16:21;14.70;99.90
31133;DHT22;17779;50.942;4.026;2023-05-23T07:18:47;14.90;99.90
31133;DHT22;17779;50.942;4.026;2023-05-23T07:21:13;14.90;99.90
31133;DHT22;17779;50.942;4.026;2023-05-23T07:23:40;15.30;99.90
31133;DHT22;17779;50.942;4.026;2023-05-23T07:26:05;15.20;99.90
31133;DHT22;17779;50.942;4.026;2023-05-23T07:28:34;14.80;99.90
31133;DHT22;17779;50.942;4.026;2023-05-23T07:31:00;14.60;99.90
31133;DHT22;17779;50.942;4.026;2023-05-23T07:33:25;15.00;99.90
31133;DHT22;17779;50.942;4.026;2023-05-23T07:35:51;15.00;99.90
31133;DHT22;17779;50.942;4.026;2023-05-23T07:38:17;14.90;99.90
31133;DHT22;17779;50.942;4.026;2023-05-23T07:40:43;14.90;99.90
31133;DHT22;17779;50.942;4.026;2023-05-23T07:43:08;14.80;99.90
31133;DHT22;17779;50.942;4.026;2023-05-23T07:45:34;14.80;99.90
31133;DHT22;17779;50.942;4.026;2023-05-23T07:48:00;14.70;99.90
31133;DHT22;17779;50.942;4.026;2023-05-23T07:50:27;14.80;99.90
31133;DHT22;17779;50.942;4.026;2023-05-23T07:52:54;15.10;99.90
31133;DHT22;17779;50.942;4.026;2023-05-23T07:55:20;15.00;99.90
31133;DHT22;17779;50.942;4.026;2023-05-23T07:57:46;15.00;99.90
31133;DHT22;17779;50.942;4.026;2023-05-23T08:00:12;14.80;99.90
31133;DHT22;17779;50.942;4.026;2023-05-23T08:02:37;14.60;99.90
31133;DHT22;17779;50.942;4.026;2023-05-23T08:05:03;14.60;99.90
31133;DHT22;17779;50.942;4.026;2023-05-23T08:07:29;14.60;99.90
31133;DHT22;17779;50.942;4.026;2023-05-23T08:09:55;14.70;99.90
31133;DHT22;17779;50.942;4.026;2023-05-23T08:12:21;14.80;99.90
31133;DHT22;17779;50.942;4.026;2023-05-23T08:14:46;14.60;99.90
31133;DHT22;17779;50.942;4.026;2023-05-23T08:17:12;14.60;99.90
31133;DHT22;17779;50.942;4.026;2023-05-23T08:19:38;14.80;99.90
31133;DHT22;17779;50.942;4.026;2023-05-23T08:22:04;15.00;99.90
31133;DHT22;17779;50.942;4.026;2023-05-23T08:24:30;15.00;99.90
31133;DHT22;17779;50.942;4.026;2023-05-23T08:26:56;15.10;99.90
31133;DHT22;17779;50.942;4.026;2023-05-23T08:29:22;14.90;99.90
31133;DHT22;17779;50.942;4.026;2023-05-23T08:31:47;14.80;99.90
31133;DHT22;17779;50.942;4.026;2023-05-23T08:34:13;14.70;99.90
31133;DHT22;17779;50.942;4.026;2023-05-23T08:36:39;14.60;99.90
31133;DHT22;17779;50.942;4.026;2023-05-23T08:39:07;14.40;99.90
31133;DHT22;17779;50.942;4.026;2023-05-23T08:41:33;14.50;99.90
31133;DHT22;17779;50.942;4.026;2023-05-23T08:44:00;14.60;99.90
31133;DHT22;17779;50.942;4.026;2023-05-23T08:46:25;14.70;99.90
31133;DHT22;17779;50.942;4.026;2023-05-23T08:48:53;14.70;99.90
31133;DHT22;17779;50.942;4.026;2023-05-23T08:51:21;14.70;99.90
31133;DHT22;17779;50.942;4.026;2023-05-23T08:53:48;14.70;99.90
31133;DHT22;17779;50.942;4.026;2023-05-23T08:56:15;14.80;99.90
31133;DHT22;17779;50.942;4.026;2023-05-23T08:58:42;14.60;99.90
31133;DHT22;17779;50.942;4.026;2023-05-23T09:01:07;14.50;99.90
31133;DHT22;17779;50.942;4.026;2023-05-23T09:03:37;14.40;99.90
31133;DHT22;17779;50.942;4.026;2023-05-23T09:06:08;14.40;99.90
31133;DHT22;17779;50.942;4.026;2023-05-23T09:08:36;14.60;99.90
31133;DHT22;17779;50.942;4.026;2023-05-23T09:11:05;14.50;99.90
31133;DHT22;17779;50.942;4.026;2023-05-23T09:13:33;14.50;99.90
31133;DHT22;17779;50.942;4.026;2023-05-23T09:16:07;14.60;99.90
31133;DHT22;17779;50.942;4.026;2023-05-23T09:18:36;14.70;99.90
31133;DHT22;17779;50.942;4.026;2023-05-23T09:21:02;14.90;99.90
31133;DHT22;17779;50.942;4.026;2023-05-23T09:23:30;14.90;99.90
31133;DHT22;17779;50.942;4.026;2023-05-23T09:25:59;14.90;99.90
31133;DHT22;17779;50.942;4.026;2023-05-23T09:28:26;14.90;99.90
31133;DHT22;17779;50.942;4.026;2023-05-23T09:31:02;14.70;99.90
31133;DHT22;17779;50.942;4.026;2023-05-23T09:33:48;14.70;99.90
31133;DHT22;17779;50.942;4.026;2023-05-23T09:36:15;14.70;99.90
31133;DHT22;17779;50.942;4.026;2023-05-23T09:38:43;14.80;99.90
31133;DHT22;17779;50.942;4.026;2023-05-23T09:41:09;14.80;99.90
31133;DHT22;17779;50.942;4.026;2023-05-23T09:43:52;14.90;99.90
31133;DHT22;17779;50.942;4.026;2023-05-23T09:46:19;15.10;99.90
31133;DHT22;17779;50.942;4.026;2023-05-23T09:48:50;15.40;99.90
31133;DHT22;17779;50.942;4.026;2023-05-23T09:51:21;15.60;99.90
31133;DHT22;17779;50.942;4.026;2023-05-23T09:53:48;15.90;99.90
31133;DHT22;17779;50.942;4.026;2023-05-23T09:56:18;17.20;99.90
31133;DHT22;17779;50.942;4.026;2023-05-23T09:58:47;18.10;99.90
31133;DHT22;17779;50.942;4.026;2023-05-23T10:01:13;18.90;99.90
31133;DHT22;17779;50.942;4.026;2023-05-23T10:03:51;19.00;99.90
31133;DHT22;17779;50.942;4.026;2023-05-23T10:06:34;18.50;99.90
31133;DHT22;17779;50.942;4.026;2023-05-23T10:09:06;17.70;99.90
31133;DHT22;17779;50.942;4.026;2023-05-23T10:14:34;16.80;99.90
31133;DHT22;17779;50.942;4.026;2023-05-23T10:17:06;17.00;99.90
31133;DHT22;17779;50.942;4.026;2023-05-23T10:22:00;18.30;99.90
31133;DHT22;17779;50.942;4.026;2023-05-23T10:24:28;19.20;99.90
31133;DHT22;17779;50.942;4.026;2023-05-23T10:26:54;19.20;99.90
31133;DHT22;17779;50.942;4.026;2023-05-23T10:29:23;18.60;99.90
31133;DHT22;17779;50.942;4.026;2023-05-23T10:31:50;18.90;99.90
31133;DHT22;17779;50.942;4.026;2023-05-23T10:37:03;19.10;99.90
31133;DHT22;17779;50.942;4.026;2023-05-23T10:45:20;19.40;99.90
31133;DHT22;17779;50.942;4.026;2023-05-23T10:47:48;19.80;99.90
31133;DHT22;17779;50.942;4.026;2023-05-23T10:50:32;19.70;99.90
31133;DHT22;17779;50.942;4.026;2023-05-23T10:53:00;19.30;99.90
31133;DHT22;17779;50.942;4.026;2023-05-23T10:55:33;18.80;99.90
31133;DHT22;17779;50.942;4.026;2023-05-23T10:58:15;18.30;99.90
31133;DHT22;17779;50.942;4.026;2023-05-23T11:00:55;18.10;99.90
31133;DHT22;17779;50.942;4.026;2023-05-23T11:03:51;19.60;99.90
31133;DHT22;17779;50.942;4.026;2023-05-23T11:12:00;24.60;98.70
31133;DHT22;17779;50.942;4.026;2023-05-23T11:19:38;21.00;99.90
31133;DHT22;17779;50.942;4.026;2023-05-23T11:22:07;21.40;99.90
31133;DHT22;17779;50.942;4.026;2023-05-23T11:24:53;20.70;99.90
31133;DHT22;17779;50.942;4.026;2023-05-23T11:27:34;21.00;99.90
31133;DHT22;17779;50.942;4.026;2023-05-23T11:32:35;23.50;99.90
31133;DHT22;17779;50.942;4.026;2023-05-23T11:35:05;23.00;98.90
31133;DHT22;17779;50.942;4.026;2023-05-23T11:37:31;22.40;99.90
31133;DHT22;17779;50.942;4.026;2023-05-23T11:39:57;23.10;98.50
31133;DHT22;17779;50.942;4.026;2023-05-23T11:42:23;22.10;99.90
31133;DHT22;17779;50.942;4.026;2023-05-23T11:44:52;22.90;99.00
31133;DHT22;17779;50.942;4.026;2023-05-23T11:47:18;22.70;97.70
31133;DHT22;17779;50.942;4.026;2023-05-23T11:49:45;21.70;99.40
31133;DHT22;17779;50.942;4.026;2023-05-23T11:52:11;22.80;99.60
31133;DHT22;17779;50.942;4.026;2023-05-23T11:54:39;23.90;97.70
31133;DHT22;17779;50.942;4.026;2023-05-23T11:57:05;25.20;93.10
31133;DHT22;17779;50.942;4.026;2023-05-23T11:59:30;25.40;91.80
31133;DHT22;17779;50.942;4.026;2023-05-23T12:01:56;24.20;93.70
31133;DHT22;17779;50.942;4.026;2023-05-23T12:04:24;22.00;96.10
31133;DHT22;17779;50.942;4.026;2023-05-23T12:06:51;20.80;99.80
31133;DHT22;17779;50.942;4.026;2023-05-23T12:09:17;21.60;99.10
31133;DHT22;17779;50.942;4.026;2023-05-23T12:11:43;21.10;98.60
31133;DHT22;17779;50.942;4.026;2023-05-23T12:14:16;20.40;99.90
31133;DHT22;17779;50.942;4.026;2023-05-23T12:16:45;22.00;99.30
31133;DHT22;17779;50.942;4.026;2023-05-23T12:19:12;21.80;98.20
31133;DHT22;17779;50.942;4.026;2023-05-23T12:21:46;23.20;96.60
31133;DHT22;17779;50.942;4.026;2023-05-23T12:26:53;24.30;92.60
31133;DHT22;17779;50.942;4.026;2023-05-23T12:29:49;23.60;94.00
31133;DHT22;17779;50.942;4.026;2023-05-23T12:32:18;23.20;94.10
31133;DHT22;17779;50.942;4.026;2023-05-23T12:34:43;22.80;95.30
31133;DHT22;17779;50.942;4.026;2023-05-23T12:37:12;23.80;94.10
31133;DHT22;17779;50.942;4.026;2023-05-23T12:39:38;24.40;92.00
31133;DHT22;17779;50.942;4.026;2023-05-23T12:42:08;24.90;91.60
31133;DHT22;17779;50.942;4.026;2023-05-23T12:44:34;25.00;91.10
31133;DHT22;17779;50.942;4.026;2023-05-23T12:47:02;24.80;91.60
31133;DHT22;17779;50.942;4.026;2023-05-23T12:49:28;24.60;91.30
31133;DHT22;17779;50.942;4.026;2023-05-23T12:51:53;23.30;92.30
31133;DHT22;17779;50.942;4.026;2023-05-23T12:54:19;21.50;94.90
31133;DHT22;17779;50.942;4.026;2023-05-23T12:56:45;20.70;97.50
31133;DHT22;17779;50.942;4.026;2023-05-23T12:59:11;20.20;99.60
31133;DHT22;17779;50.942;4.026;2023-05-23T13:01:36;20.10;99.90
31133;DHT22;17779;50.942;4.026;2023-05-23T13:04:02;20.00;99.90
31133;DHT22;17779;50.942;4.026;2023-05-23T13:06:28;20.10;99.90
31133;DHT22;17779;50.942;4.026;2023-05-23T13:08:54;19.80;99.90
31133;DHT22;17779;50.942;4.026;2023-05-23T13:11:20;19.50;99.90
31133;DHT22;17779;50.942;4.026;2023-05-23T13:13:50;19.50;99.90
31133;DHT22;17779;50.942;4.026;2023-05-23T13:16:16;19.40;99.90
31133;DHT22;17779;50.942;4.026;2023-05-23T13:18:43;19.30;99.90
31133;DHT22;17779;50.942;4.026;2023-05-23T13:21:08;19.20;99.90
31133;DHT22;17779;50.942;4.026;2023-05-23T13:23:35;19.00;99.90
31133;DHT22;17779;50.942;4.026;2023-05-23T13:26:03;19.30;99.90
31133;DHT22;17779;50.942;4.026;2023-05-23T13:28:29;19.60;99.90
31133;DHT22;17779;50.942;4.026;2023-05-23T13:30:55;19.70;99.90
31133;DHT22;17779;50.942;4.026;2023-05-23T13:33:21;19.60;99.90
31133;DHT22;17779;50.942;4.026;2023-05-23T13:35:48;19.50;99.90
31133;DHT22;17779;50.942;4.026;2023-05-23T13:38:19;19.40;99.90
31133;DHT22;17779;50.942;4.026;2023-05-23T13:40:45;19.10;99.90
31133;DHT22;17779;50.942;4.026;2023-05-23T13:43:12;18.90;99.90
31133;DHT22;17779;50.942;4.026;2023-05-23T13:45:37;19.10;99.90
31133;DHT22;17779;50.942;4.026;2023-05-23T13:48:04;19.40;99.90
31133;DHT22;17779;50.942;4.026;2023-05-23T13:50:30;19.50;99.90
31133;DHT22;17779;50.942;4.026;2023-05-23T13:52:56;19.50;99.90
31133;DHT22;17779;50.942;4.026;2023-05-23T13:55:22;19.40;99.90
31133;DHT22;17779;50.942;4.026;2023-05-23T13:57:47;19.40;99.90
31133;DHT22;17779;50.942;4.026;2023-05-23T14:00:13;19.00;99.90
31133;DHT22;17779;50.942;4.026;2023-05-23T14:02:40;18.80;99.90
31133;DHT22;17779;50.942;4.026;2023-05-23T14:05:06;18.90;99.90
31133;DHT22;17779;50.942;4.026;2023-05-23T14:07:32;18.80;99.90
31133;DHT22;17779;50.942;4.026;2023-05-23T14:09:58;18.70;99.90
31133;DHT22;17779;50.942;4.026;2023-05-23T14:12:24;18.70;99.90
31133;DHT22;17779;50.942;4.026;2023-05-23T14:14:51;18.60;99.90
31133;DHT22;17779;50.942;4.026;2023-05-23T14:17:16;18.80;99.90
31133;DHT22;17779;50.942;4.026;2023-05-23T14:19:42;18.70;99.90
31133;DHT22;17779;50.942;4.026;2023-05-23T14:22:09;18.50;99.90
31133;DHT22;17779;50.942;4.026;2023-05-23T14:24:35;18.40;99.90
31133;DHT22;17779;50.942;4.026;2023-05-23T14:27:01;18.30;99.90
31133;DHT22;17779;50.942;4.026;2023-05-23T14:29:28;18.20;99.90
31133;DHT22;17779;50.942;4.026;2023-05-23T14:31:54;18.00;99.90
31133;DHT22;17779;50.942;4.026;2023-05-23T14:34:19;18.10;99.90
31133;DHT22;17779;50.942;4.026;2023-05-23T14:36:46;18.20;99.90
31133;DHT22;17779;50.942;4.026;2023-05-23T14:39:13;18.30;99.90
31133;DHT22;17779;50.942;4.026;2023-05-23T14:41:38;18.40;99.90
31133;DHT22;17779;50.942;4.026;2023-05-23T14:44:04;18.10;99.90
31133;DHT22;17779;50.942;4.026;2023-05-23T14:46:30;18.20;99.90
31133;DHT22;17779;50.942;4.026;2023-05-23T14:48:56;18.00;99.90
31133;DHT22;17779;50.942;4.026;2023-05-23T14:51:23;17.90;99.90
31133;DHT22;17779;50.942;4.026;2023-05-23T14:53:48;17.90;99.90
31133;DHT22;17779;50.942;4.026;2023-05-23T14:56:14;18.00;99.90
31133;DHT22;17779;50.942;4.026;2023-05-23T14:58:40;18.00;99.90
31133;DHT22;17779;50.942;4.026;2023-05-23T15:01:13;18.10;99.90
31133;DHT22;17779;50.942;4.026;2023-05-23T15:03:38;17.90;99.90
31133;DHT22;17779;50.942;4.026;2023-05-23T15:06:04;17.80;99.90
31133;DHT22;17779;50.942;4.026;2023-05-23T15:08:31;17.70;99.90
31133;DHT22;17779;50.942;4.026;2023-05-23T15:10:58;17.80;99.90
31133;DHT22;17779;50.942;4.026;2023-05-23T15:13:23;17.60;99.90
31133;DHT22;17779;50.942;4.026;2023-05-23T15:15:49;17.60;99.90
31133;DHT22;17779;50.942;4.026;2023-05-23T15:18:15;17.60;99.90
31133;DHT22;17779;50.942;4.026;2023-05-23T15:20:40;17.70;99.90
31133;DHT22;17779;50.942;4.026;2023-05-23T15:23:06;17.80;99.90
31133;DHT22;17779;50.942;4.026;2023-05-23T15:25:32;17.90;99.90
31133;DHT22;17779;50.942;4.026;2023-05-23T15:27:58;17.80;99.90
31133;DHT22;17779;50.942;4.026;2023-05-23T15:30:24;17.70;99.90
31133;DHT22;17779;50.942;4.026;2023-05-23T15:32:49;17.80;99.90
31133;DHT22;17779;50.942;4.026;2023-05-23T15:35:16;17.70;99.90
31133;DHT22;17779;50.942;4.026;2023-05-23T15:37:41;17.50;99.90
31133;DHT22;17779;50.942;4.026;2023-05-23T15:40:09;17.30;99.90
31133;DHT22;17779;50.942;4.026;2023-05-23T15:42:35;17.20;99.90
31133;DHT22;17779;50.942;4.026;2023-05-23T15:45:02;17.10;99.90
31133;DHT22;17779;50.942;4.026;2023-05-23T15:47:27;17.00;99.90
31133;DHT22;17779;50.942;4.026;2023-05-23T15:49:54;17.10;99.90
31133;DHT22;17779;50.942;4.026;2023-05-23T15:52:21;17.00;99.90
31133;DHT22;17779;50.942;4.026;2023-05-23T15:54:49;17.10;99.90
31133;DHT22;17779;50.942;4.026;2023-05-23T15:57:17;17.00;99.90
31133;DHT22;17779;50.942;4.026;2023-05-23T15:59:44;17.00;99.90
31133;DHT22;17779;50.942;4.026;2023-05-23T16:02:10;16.90;99.90